createdAt,value
2022-12-20T00:01:31.333Z,4.06
2022-12-20T00:04:02.437Z,4.05
2022-12-20T00:06:30.428Z,4.00
2022-12-20T00:09:02.123Z,4.06
2022-12-20T00:11:30.059Z,3.99
2022-12-20T00:13:58.427Z,4.07
2022-12-20T00:16:28.276Z,4.06
2022-12-20T00:19:02.574Z,4.06
2022-12-20T00:21:32.082Z,4.03
2022-12-20T00:24:02.853Z,4.02
2022-12-20T00:26:32.717Z,4.02
2022-12-20T00:29:00.831Z,4.05
2022-12-20T00:31:30.131Z,4.01
2022-12-20T00:33:59.295Z,4.03
2022-12-20T00:36:29.558Z,4.04
2022-12-20T00:38:58.279Z,4.04
2022-12-20T00:41:28.002Z,4.04
2022-12-20T00:43:55.816Z,4.07
2022-12-20T00:46:24.841Z,4.07
2022-12-20T00:48:53.674Z,4.06
2022-12-20T00:51:24.936Z,4.10
2022-12-20T00:53:52.703Z,4.11
2022-12-20T00:56:20.469Z,4.08
2022-12-20T00:58:47.885Z,4.06
2022-12-20T01:01:26.201Z,4.02
2022-12-20T01:03:54.521Z,4.03
2022-12-20T01:06:24.213Z,4.02
2022-12-20T01:08:53.159Z,3.99
2022-12-20T01:11:23.163Z,4.04
2022-12-20T01:13:53.096Z,4.04
2022-12-20T01:16:26.626Z,4.02
2022-12-20T01:18:55.530Z,4.06
2022-12-20T01:21:26.055Z,4.09
2022-12-20T01:23:54.382Z,4.13
2022-12-20T01:26:24.818Z,4.13
2022-12-20T01:28:54.987Z,4.07
2022-12-20T01:31:23.442Z,4.11
2022-12-20T01:33:52.454Z,4.10
2022-12-20T01:36:25.416Z,4.09
2022-12-20T01:39:05.210Z,4.11
2022-12-20T01:41:33.795Z,4.17
2022-12-20T01:44:06.830Z,4.19
2022-12-20T01:46:39.726Z,4.13
2022-12-20T01:49:20.329Z,4.11
2022-12-20T01:51:55.952Z,4.14
2022-12-20T01:54:36.599Z,4.13
2022-12-20T01:57:09.076Z,4.14
2022-12-20T01:59:39.890Z,4.18
2022-12-20T02:02:11.144Z,4.09
2022-12-20T02:04:39.165Z,4.05
2022-12-20T02:07:08.017Z,4.05
2022-12-20T02:09:37.858Z,4.03
2022-12-20T02:12:17.953Z,4.15
2022-12-20T02:15:10.223Z,4.17
2022-12-20T02:17:40.272Z,4.17
2022-12-20T02:20:16.730Z,4.16
2022-12-20T02:23:06.028Z,4.13
2022-12-20T02:25:46.562Z,4.18
2022-12-20T02:28:32.754Z,4.15
2022-12-20T02:31:05.429Z,4.18
2022-12-20T02:33:32.834Z,4.15
2022-12-20T02:36:00.498Z,4.12
2022-12-20T02:38:32.689Z,4.08
2022-12-20T02:41:30.410Z,4.08
2022-12-20T02:44:23.710Z,4.02
2022-12-20T02:46:52.190Z,4.04
2022-12-20T02:49:26.300Z,4.10
2022-12-20T02:51:57.403Z,4.09
2022-12-20T02:54:25.326Z,4.07
2022-12-20T02:57:10.177Z,4.11
2022-12-20T02:59:45.685Z,4.00
2022-12-20T03:02:13.332Z,4.08
2022-12-20T03:04:42.053Z,4.02
2022-12-20T03:07:13.559Z,4.13
2022-12-20T03:09:43.209Z,4.13
2022-12-20T03:12:14.382Z,4.07
2022-12-20T03:14:42.311Z,4.10
2022-12-20T03:17:11.491Z,4.03
2022-12-20T03:19:39.141Z,4.03
2022-12-20T03:22:06.866Z,4.11
2022-12-20T03:24:34.542Z,4.12
2022-12-20T03:27:06.586Z,4.21
2022-12-20T03:29:34.027Z,4.12
2022-12-20T03:32:01.511Z,4.12
2022-12-20T03:34:29.993Z,4.15
2022-12-20T03:36:57.457Z,4.17
2022-12-20T03:39:24.949Z,4.18
2022-12-20T03:41:54.396Z,4.14
2022-12-20T03:44:21.989Z,4.10
2022-12-20T03:46:50.295Z,4.17
2022-12-20T03:49:18.715Z,4.10
2022-12-20T03:51:50.161Z,4.16
2022-12-20T03:54:19.085Z,4.13
2022-12-20T03:57:09.859Z,4.23
2022-12-20T03:59:37.457Z,4.15
2022-12-20T04:02:06.578Z,4.06
2022-12-20T04:04:37.553Z,4.02
2022-12-20T04:07:05.035Z,4.13
2022-12-20T04:09:33.125Z,4.10
2022-12-20T04:12:06.552Z,4.09
2022-12-20T04:14:37.400Z,4.14
2022-12-20T04:17:05.494Z,4.22
2022-12-20T04:19:33.955Z,4.22
2022-12-20T04:22:05.540Z,4.09
2022-12-20T04:24:49.216Z,4.11
2022-12-20T04:27:25.353Z,4.12
2022-12-20T04:29:54.530Z,4.20
2022-12-20T04:32:22.977Z,4.18
2022-12-20T04:34:50.725Z,4.15
2022-12-20T04:37:18.829Z,4.29
2022-12-20T04:39:51.147Z,4.24
2022-12-20T04:42:22.176Z,4.20
2022-12-20T04:44:51.248Z,4.19
2022-12-20T04:47:24.203Z,4.22
2022-12-20T04:49:53.231Z,4.16
2022-12-20T04:52:45.536Z,4.07
2022-12-20T04:55:16.309Z,4.12
2022-12-20T04:57:44.123Z,4.17
2022-12-20T05:00:17.785Z,4.12
2022-12-20T05:02:51.707Z,4.07
2022-12-20T05:05:21.395Z,4.10
2022-12-20T05:07:53.561Z,4.07
2022-12-20T05:10:21.498Z,4.13
2022-12-20T05:12:50.464Z,4.19
2022-12-20T05:15:40.199Z,4.18
2022-12-20T05:18:07.622Z,4.13
2022-12-20T05:20:45.655Z,4.05
2022-12-20T05:23:31.675Z,4.05
2022-12-20T05:26:18.676Z,4.11
2022-12-20T05:28:47.550Z,4.07
2022-12-20T05:31:15.423Z,4.16
2022-12-20T05:33:43.989Z,4.18
2022-12-20T05:36:13.180Z,4.14
2022-12-20T05:38:41.209Z,4.11
2022-12-20T05:41:14.307Z,4.01
2022-12-20T05:43:42.761Z,4.06
2022-12-20T05:46:11.570Z,4.11
2022-12-20T05:48:51.058Z,4.22
2022-12-20T05:51:18.494Z,4.20
2022-12-20T05:54:01.918Z,4.19
2022-12-20T05:56:54.358Z,4.06
2022-12-20T05:59:27.322Z,4.11
2022-12-20T06:01:56.576Z,4.13
2022-12-20T06:04:25.102Z,4.15
2022-12-20T06:06:55.968Z,4.20
2022-12-20T06:09:23.956Z,4.15
2022-12-20T06:12:04.270Z,4.21
2022-12-20T06:14:33.918Z,4.12
2022-12-20T06:17:02.482Z,4.11
2022-12-20T06:19:31.356Z,4.16
2022-12-20T06:22:00.277Z,4.14
2022-12-20T06:24:44.354Z,4.12
2022-12-20T06:27:15.611Z,4.15
2022-12-20T06:29:49.465Z,4.20
2022-12-20T06:32:17.582Z,4.16
2022-12-20T06:34:45.025Z,4.15
2022-12-20T06:37:12.766Z,4.12
2022-12-20T06:39:40.525Z,4.11
2022-12-20T06:42:09.791Z,4.17
2022-12-20T06:44:39.806Z,4.17
2022-12-20T06:47:07.815Z,4.16
2022-12-20T06:49:35.239Z,4.20
2022-12-20T06:52:08.093Z,4.14
2022-12-20T06:54:50.731Z,4.13
2022-12-20T06:57:20.100Z,4.13
2022-12-20T06:59:48.810Z,4.25
2022-12-20T07:02:16.518Z,4.28
2022-12-20T07:04:44.217Z,4.22
2022-12-20T07:07:13.365Z,4.31
2022-12-20T07:09:41.578Z,4.18
2022-12-20T07:12:10.162Z,4.25
2022-12-20T07:14:37.583Z,4.28
2022-12-20T07:17:07.637Z,4.29
2022-12-20T07:19:36.548Z,4.24
2022-12-20T07:22:05.736Z,4.23
2022-12-20T07:24:34.301Z,4.26
2022-12-20T07:27:02.133Z,4.30
2022-12-20T07:29:29.545Z,4.20
2022-12-20T07:32:00.232Z,4.17
2022-12-20T07:34:27.727Z,4.21
2022-12-20T07:36:55.169Z,4.29
2022-12-20T07:39:22.681Z,4.22
2022-12-20T07:41:53.821Z,4.31
2022-12-20T07:44:23.319Z,4.31
2022-12-20T07:46:50.829Z,4.39
2022-12-20T07:49:20.340Z,4.44
2022-12-20T07:51:53.232Z,4.41
2022-12-20T07:54:24.986Z,4.40
2022-12-20T07:56:56.089Z,4.43
2022-12-20T07:59:31.585Z,4.40
2022-12-20T08:02:04.375Z,4.54
2022-12-20T08:04:34.236Z,4.55
2022-12-20T08:07:04.876Z,4.68
2022-12-20T08:09:36.808Z,4.52
2022-12-20T08:12:04.504Z,4.56
2022-12-20T08:14:32.046Z,4.52
2022-12-20T08:16:59.531Z,4.51
2022-12-20T08:19:32.472Z,4.51
2022-12-20T08:22:00.400Z,4.48
2022-12-20T08:24:28.019Z,4.57
2022-12-20T08:26:55.490Z,4.58
2022-12-20T08:29:23.276Z,4.49
2022-12-20T08:31:51.051Z,4.49
2022-12-20T08:34:19.081Z,4.50
2022-12-20T08:36:46.555Z,4.60
2022-12-20T08:39:14.050Z,4.65
2022-12-20T08:41:41.349Z,4.55
2022-12-20T08:44:10.324Z,4.54
2022-12-20T08:46:56.524Z,4.65
2022-12-20T08:49:24.004Z,4.65
2022-12-20T08:51:52.449Z,4.68
2022-12-20T08:54:19.982Z,4.72
2022-12-20T08:56:47.740Z,4.67
2022-12-20T08:59:15.606Z,4.74
2022-12-20T09:01:42.997Z,4.70
2022-12-20T09:04:11.864Z,4.71
2022-12-20T09:06:39.384Z,4.70
2022-12-20T09:09:07.355Z,4.71
2022-12-20T09:11:34.848Z,4.81
2022-12-20T09:14:02.322Z,4.77
2022-12-20T09:16:32.386Z,4.79
2022-12-20T09:19:05.482Z,4.78
2022-12-20T09:21:34.898Z,4.76
2022-12-20T09:24:02.492Z,4.80
2022-12-20T09:26:30.878Z,4.84
2022-12-20T09:29:05.394Z,4.91
2022-12-20T09:31:32.933Z,4.97
2022-12-20T09:34:01.015Z,5.01
2022-12-20T09:36:30.011Z,5.05
2022-12-20T09:38:57.849Z,5.09
2022-12-20T09:41:27.926Z,5.01
2022-12-20T09:43:56.136Z,5.06
2022-12-20T09:46:25.645Z,5.08
2022-12-20T09:48:56.579Z,5.08
2022-12-20T09:51:55.140Z,5.12
2022-12-20T09:54:22.545Z,5.12
2022-12-20T09:57:19.144Z,5.20
2022-12-20T09:59:49.871Z,5.23
2022-12-20T10:05:16.941Z,5.34
2022-12-20T10:08:07.024Z,5.36
2022-12-20T10:11:11.504Z,5.25
2022-12-20T10:14:00.227Z,5.27
2022-12-20T10:16:47.051Z,5.31
2022-12-20T10:19:26.620Z,5.36
2022-12-20T10:22:14.316Z,5.42
2022-12-20T10:24:48.234Z,5.37
2022-12-20T10:27:18.763Z,5.34
2022-12-20T10:29:49.445Z,5.37
2022-12-20T10:32:22.143Z,5.37
2022-12-20T10:34:52.186Z,5.37
2022-12-20T10:37:19.487Z,5.39
2022-12-20T10:39:51.933Z,5.37
2022-12-20T10:42:40.707Z,5.34
2022-12-20T10:45:38.718Z,5.32
2022-12-20T10:48:24.257Z,5.39
2022-12-20T10:51:16.778Z,5.50
2022-12-20T10:54:02.566Z,5.48
2022-12-20T10:56:32.588Z,5.48
2022-12-20T10:59:22.749Z,5.55
2022-12-20T11:01:51.051Z,5.58
2022-12-20T11:04:21.813Z,5.66
2022-12-20T11:06:49.319Z,5.64
2022-12-20T11:09:19.689Z,5.64
2022-12-20T11:12:17.973Z,5.68
2022-12-20T11:14:47.437Z,5.77
2022-12-20T11:17:14.792Z,5.76
2022-12-20T11:19:56.603Z,5.75
2022-12-20T11:22:44.987Z,5.81
2022-12-20T11:25:15.085Z,5.85
2022-12-20T11:28:19.484Z,5.88
2022-12-20T11:31:00.443Z,5.94
2022-12-20T11:33:55.971Z,6.00
2022-12-20T11:36:38.345Z,6.03
2022-12-20T11:39:17.978Z,5.88
2022-12-20T11:41:55.482Z,5.94
2022-12-20T11:45:03.304Z,6.07
2022-12-20T11:47:53.231Z,6.03
2022-12-20T11:50:50.860Z,5.94
2022-12-20T11:53:25.252Z,5.99
2022-12-20T11:55:58.339Z,6.02
2022-12-20T11:58:35.536Z,6.09
2022-12-20T12:01:13.942Z,6.06
2022-12-20T12:03:50.749Z,6.10
2022-12-20T12:06:25.709Z,6.21
2022-12-20T12:09:11.537Z,6.23
2022-12-20T12:12:06.680Z,6.27
2022-12-20T12:14:43.679Z,6.12
2022-12-20T12:17:24.987Z,6.05
2022-12-20T12:20:01.552Z,6.19
2022-12-20T12:22:35.554Z,6.32
2022-12-20T12:25:09.237Z,6.27
2022-12-20T12:27:36.588Z,6.23
2022-12-20T12:30:07.179Z,6.27
2022-12-20T12:32:46.371Z,6.30
2022-12-20T12:35:43.090Z,6.25
2022-12-20T12:39:02.372Z,6.32
2022-12-20T12:41:36.192Z,6.32
2022-12-20T12:44:18.762Z,6.37
2022-12-20T12:46:55.340Z,6.25
2022-12-20T12:49:28.135Z,6.19
2022-12-20T12:51:59.175Z,6.30
2022-12-20T12:54:30.552Z,6.20
2022-12-20T12:57:14.832Z,6.21
2022-12-20T12:59:48.440Z,6.27
2022-12-20T13:02:16.537Z,6.17
2022-12-20T13:05:06.444Z,6.05
2022-12-20T13:07:35.190Z,6.04
2022-12-20T13:10:25.687Z,5.96
2022-12-20T13:12:58.472Z,5.95
2022-12-20T13:15:25.789Z,6.01
2022-12-20T13:17:53.186Z,6.01
2022-12-20T13:20:25.155Z,6.09
2022-12-20T13:23:07.756Z,6.15
2022-12-20T13:25:44.516Z,6.12
2022-12-20T13:28:24.536Z,6.07
2022-12-20T13:31:04.905Z,6.03
2022-12-20T13:33:45.851Z,6.15
2022-12-20T13:36:13.231Z,6.17
2022-12-20T13:38:44.925Z,6.18
2022-12-20T13:41:35.180Z,6.14
2022-12-20T13:44:23.801Z,6.15
2022-12-20T13:47:14.557Z,6.06
2022-12-20T13:49:43.781Z,6.00
2022-12-20T13:52:11.221Z,6.03
2022-12-20T13:54:52.366Z,6.04
2022-12-20T13:57:32.062Z,5.92
2022-12-20T14:00:07.087Z,6.03
2022-12-20T14:02:41.536Z,6.00
2022-12-20T14:05:33.316Z,5.95
2022-12-20T14:08:06.088Z,5.97
2022-12-20T14:10:35.277Z,6.00
2022-12-20T14:13:03.267Z,5.94
2022-12-20T14:15:33.243Z,5.99
2022-12-20T14:18:18.587Z,5.96
2022-12-20T14:20:50.853Z,5.96
2022-12-20T14:23:32.494Z,5.98
2022-12-20T14:26:02.255Z,6.09
2022-12-20T14:28:37.766Z,6.08
2022-12-20T14:31:07.876Z,6.07
2022-12-20T14:33:40.388Z,6.01
2022-12-20T14:36:16.772Z,6.04
2022-12-20T14:38:50.082Z,5.94
2022-12-20T14:41:44.088Z,5.91
2022-12-20T14:44:20.728Z,5.91
2022-12-20T14:46:54.139Z,5.95
2022-12-20T14:49:22.404Z,6.00
2022-12-20T14:51:51.548Z,5.96
2022-12-20T14:55:05.789Z,5.92
2022-12-20T14:57:26.316Z,5.89
2022-12-20T15:00:12.270Z,5.97
2022-12-20T15:02:41.388Z,5.90
2022-12-20T15:05:35.692Z,5.99
2022-12-20T15:08:39.070Z,5.92
2022-12-20T15:11:09.008Z,5.90
2022-12-20T15:13:42.635Z,5.80
2022-12-20T15:16:21.387Z,5.86
2022-12-20T15:18:54.031Z,5.82
2022-12-20T15:21:41.004Z,5.84
2022-12-20T15:24:17.080Z,5.82
2022-12-20T15:26:44.777Z,5.83
2022-12-20T15:29:21.469Z,5.91
2022-12-20T15:31:50.040Z,5.98
2022-12-20T15:34:28.963Z,5.92
2022-12-20T15:36:59.941Z,5.89
2022-12-20T15:39:28.048Z,5.85
2022-12-20T15:41:58.119Z,5.87
2022-12-20T15:44:30.591Z,5.83
2022-12-20T15:47:00.841Z,5.87
2022-12-20T15:49:32.645Z,5.79
2022-12-20T15:52:00.139Z,5.81
2022-12-20T15:54:32.889Z,5.80
2022-12-20T15:57:03.450Z,5.84
2022-12-20T16:02:27.112Z,5.81
2022-12-20T16:04:55.569Z,5.81
2022-12-20T16:07:23.589Z,5.78
2022-12-20T16:09:51.223Z,5.77
2022-12-20T16:12:26.918Z,5.80
2022-12-20T16:14:55.251Z,5.81
2022-12-20T16:17:22.813Z,5.84
2022-12-20T16:19:50.729Z,5.83
2022-12-20T16:22:22.355Z,5.85
2022-12-20T16:24:50.055Z,5.81
2022-12-20T16:27:17.730Z,5.84
2022-12-20T16:29:45.466Z,5.86
2022-12-20T16:32:22.240Z,5.87
2022-12-20T16:34:51.098Z,5.89
2022-12-20T16:37:18.451Z,5.93
2022-12-20T16:39:48.708Z,5.92
2022-12-20T16:42:19.403Z,5.93
2022-12-20T16:44:51.355Z,5.89
2022-12-20T16:47:18.815Z,5.89
2022-12-20T16:49:52.211Z,5.86
2022-12-20T16:52:22.304Z,5.86
2022-12-20T16:54:50.594Z,5.87
2022-12-20T16:57:18.131Z,5.90
2022-12-20T16:59:45.611Z,5.90
2022-12-20T17:02:25.627Z,5.90
2022-12-20T17:04:53.141Z,5.89
2022-12-20T17:07:21.230Z,5.82
2022-12-20T17:12:33.327Z,5.87
2022-12-20T17:15:00.685Z,5.82
2022-12-20T17:17:28.035Z,5.80
2022-12-20T17:19:55.485Z,5.82
2022-12-20T17:22:23.042Z,5.88
2022-12-20T17:24:50.520Z,5.95
2022-12-20T17:27:17.823Z,5.91
2022-12-20T17:29:45.183Z,5.83
2022-12-20T17:32:23.150Z,5.97
2022-12-20T17:34:51.253Z,5.94
2022-12-20T17:37:18.803Z,5.90
2022-12-20T17:39:49.463Z,5.89
2022-12-20T17:42:17.209Z,5.90
2022-12-20T17:44:46.251Z,5.93
2022-12-20T17:47:14.060Z,5.93
2022-12-20T17:49:41.414Z,5.87
2022-12-20T17:52:14.336Z,5.86
2022-12-20T17:54:41.755Z,5.82
2022-12-20T17:57:16.663Z,5.92
2022-12-20T17:59:44.415Z,5.85
2022-12-20T18:02:22.086Z,5.91
2022-12-20T18:04:50.127Z,5.88
2022-12-20T18:07:17.589Z,5.89
2022-12-20T18:09:47.695Z,5.83
2022-12-20T18:12:15.387Z,5.79
2022-12-20T18:14:42.750Z,5.79
2022-12-20T18:17:10.245Z,5.84
2022-12-20T18:19:37.715Z,5.88
2022-12-20T18:22:06.520Z,5.87
2022-12-20T18:24:33.927Z,5.82
2022-12-20T18:27:01.327Z,5.86
2022-12-20T18:29:29.674Z,5.83
2022-12-20T18:31:57.461Z,5.92
2022-12-20T18:34:25.045Z,5.95
2022-12-20T18:36:52.433Z,5.92
2022-12-20T18:39:20.014Z,6.06
2022-12-20T18:41:48.418Z,5.98
2022-12-20T18:44:15.795Z,5.85
2022-12-20T18:46:43.172Z,5.81
2022-12-20T18:49:10.494Z,5.82
2022-12-20T18:51:37.968Z,5.82
2022-12-20T18:54:08.108Z,5.91
2022-12-20T18:56:38.245Z,5.86
2022-12-20T18:59:12.064Z,5.80
2022-12-20T19:01:41.766Z,5.78
2022-12-20T19:04:10.785Z,5.79
2022-12-20T19:06:38.797Z,5.78
2022-12-20T19:09:10.146Z,5.71
2022-12-20T19:11:38.147Z,5.77
2022-12-20T19:14:06.371Z,5.72
2022-12-20T19:16:34.417Z,5.74
2022-12-20T19:19:03.554Z,5.82
2022-12-20T19:21:33.805Z,5.75
2022-12-20T19:24:05.181Z,5.72
2022-12-20T19:26:33.564Z,5.70
2022-12-20T19:29:00.991Z,5.67
2022-12-20T19:31:31.264Z,5.64
2022-12-20T19:34:02.030Z,5.67
2022-12-20T19:36:32.283Z,5.71
2022-12-20T19:39:01.794Z,5.69
2022-12-20T19:41:32.061Z,5.86
2022-12-20T19:43:59.896Z,5.75
2022-12-20T19:46:29.775Z,5.78
2022-12-20T19:48:59.415Z,5.77
2022-12-20T19:51:31.029Z,5.79
2022-12-20T19:53:59.146Z,5.85
2022-12-20T19:56:30.201Z,5.72
2022-12-20T19:58:57.631Z,5.65
2022-12-20T20:01:27.180Z,5.65
2022-12-20T20:03:57.093Z,5.79
2022-12-20T20:06:25.878Z,5.79
2022-12-20T20:08:53.563Z,5.95
2022-12-20T20:11:21.168Z,5.88
2022-12-20T20:13:48.639Z,5.71
2022-12-20T20:16:21.910Z,5.64
2022-12-20T20:18:50.344Z,5.62
2022-12-20T20:21:21.918Z,5.64
2022-12-20T20:23:51.102Z,5.59
2022-12-20T20:26:21.996Z,5.59
2022-12-20T20:28:49.494Z,5.63
2022-12-20T20:31:17.874Z,5.63
2022-12-20T20:33:45.774Z,5.61
2022-12-20T20:36:15.475Z,5.76
2022-12-20T20:38:42.919Z,5.70
2022-12-20T20:41:10.687Z,5.67
2022-12-20T20:43:38.465Z,5.66
2022-12-20T20:46:08.640Z,5.65
2022-12-20T20:48:36.214Z,5.64
2022-12-20T20:51:04.281Z,5.58
2022-12-20T20:53:34.154Z,5.57
2022-12-20T20:56:06.264Z,5.57
2022-12-20T20:58:34.882Z,5.65
2022-12-20T21:01:07.015Z,5.67
2022-12-20T21:03:34.573Z,5.73
2022-12-20T21:08:49.865Z,5.72
2022-12-20T21:11:17.493Z,5.76
2022-12-20T21:13:45.263Z,5.69
2022-12-20T21:16:16.227Z,5.67
2022-12-20T21:18:43.712Z,5.65
2022-12-20T21:21:13.520Z,5.65
2022-12-20T21:23:46.194Z,5.65
2022-12-20T21:26:15.121Z,5.67
2022-12-20T21:28:43.888Z,5.69
2022-12-20T21:31:17.004Z,5.74
2022-12-20T21:33:46.131Z,5.63
2022-12-20T21:36:16.421Z,5.64
2022-12-20T21:38:51.267Z,5.60
2022-12-20T21:41:23.176Z,5.61
2022-12-20T21:43:51.438Z,5.67
2022-12-20T21:46:18.870Z,5.68
2022-12-20T21:48:46.991Z,5.68
2022-12-20T21:51:20.177Z,5.65
2022-12-20T21:53:52.591Z,5.63
2022-12-20T21:56:21.635Z,5.63
2022-12-20T21:58:51.880Z,5.62
2022-12-20T22:01:21.969Z,5.64
2022-12-20T22:04:01.591Z,5.66
2022-12-20T22:06:29.892Z,5.62
2022-12-20T22:08:58.669Z,5.61
2022-12-20T22:11:26.116Z,5.57
2022-12-20T22:13:55.719Z,5.59
2022-12-20T22:16:26.460Z,5.62
2022-12-20T22:18:55.809Z,5.58
2022-12-20T22:21:26.473Z,5.60
2022-12-20T22:23:58.522Z,5.61
2022-12-20T22:26:29.386Z,5.57
2022-12-20T22:29:00.025Z,5.55
2022-12-20T22:31:27.763Z,5.56
2022-12-20T22:33:56.623Z,5.50
2022-12-20T22:36:24.757Z,5.52
2022-12-20T22:38:54.130Z,5.53
2022-12-20T22:41:28.596Z,5.50
2022-12-20T22:43:58.405Z,5.55
2022-12-20T22:46:29.232Z,5.52
2022-12-20T22:48:57.869Z,5.52
2022-12-20T22:51:27.207Z,5.56
2022-12-20T22:54:00.126Z,5.57
2022-12-20T22:56:27.823Z,5.55
2022-12-20T22:58:56.005Z,5.52
2022-12-20T23:01:23.511Z,5.55
2022-12-20T23:03:53.877Z,5.52
2022-12-20T23:06:21.798Z,5.54
2022-12-20T23:08:49.392Z,5.51
2022-12-20T23:11:43.369Z,5.50
2022-12-20T23:14:31.435Z,5.52
2022-12-20T23:16:59.495Z,5.58
2022-12-20T23:19:29.440Z,5.52
2022-12-20T23:22:15.330Z,5.56
2022-12-20T23:24:42.644Z,5.59
2022-12-20T23:27:09.904Z,5.56
2022-12-20T23:29:37.259Z,5.53
2022-12-20T23:32:04.638Z,5.52
2022-12-20T23:34:31.990Z,5.52
2022-12-20T23:36:59.491Z,5.46
2022-12-20T23:39:26.744Z,5.56
2022-12-20T23:41:54.069Z,5.55
2022-12-20T23:44:21.482Z,5.57
2022-12-20T23:46:48.894Z,5.53
2022-12-20T23:49:16.189Z,5.57
2022-12-20T23:51:45.557Z,5.54
2022-12-20T23:54:12.965Z,5.53
2022-12-20T23:56:40.369Z,5.56
2022-12-20T23:59:08.166Z,5.54
